MRPV

Details ICAO MRPV (SYQ)
Name TOBIAS BOLANOS INTL
Region Costa Rica
Timezone America/Costa_Rica (UTC-6.0)
Plans Departing 62
Arriving 32
Stats Elevation 3,287 ft / 1,002 m (AMSL)
Location 9.957052° -84.139797°
Runways 1
Magnetic Variation 1.816° W
Sunrise 2018-05-22 11:16:04 UTC / 2018-05-22 05:16:04 Local
Sunset 2018-05-22 23:53:17 UTC / 2018-05-22 17:53:17 Local
Advertisement - Login to hide

Runways

ID Width Length Bearing (true) Bearing (mag) Surface Threshold Offset Overrun Length
09 60 ft / 18 m 5,304 ft / 1,617 m 95.09° 96.91° Asphalt 200 ft / 61 m 0 ft / 0 m
27 60 ft / 18 m 5,304 ft / 1,617 m 275.10° 276.92° Asphalt 0 ft / 0 m 0 ft / 0 m

Map

Weather


0- 5 10 15 20 25 30 35+ Temperature / ° C

Clouds and Precipitation
Forecast for 2018-05-22 18:00 UTC. Updated 5 hours ago

Ground ~20,000 ft ~40,000 ft Winds

METAR

MRPV 222100Z 28009KT 9999 BCFG FEW005 SCT010 BKN100 22/19 A2996 NOSIG

TAF

TAF TAF MRPV 221700Z 2218/2318 29008KT 9999 SCT030 BKN100 TX26/2316Z TN18/2310Z BECMG 2218/2220 5000 SHRA SCT020TCU FM222100 30005KT 4000 RA BR BKN010 BECMG 2304/2306 00000KT 0500 FG BECMG 2306/2312 10005KT BECMG 2315/2318 28005KT

Frequencies

Ground 121.70 MHz GND
Tower 118.30 MHz PAVAS TWR
Warning: Do not use this data for real-world aviation or navigation. No guarantee of current accuracy is given.